Time;durP1;ratioP1;P1;durP2;ratioP2;P2;SDS_P1;SDS_P2;PMS_P1;PMS_P2;Temp;Humidity;BMP_temperature;BMP_pressure;BME280_temperature;BME280_humidity;BME280_pressure;Samples;Min_cycle;Max_cycle;Signal;HPM_P1;HPM_P2
2022/03/21 01:28:47;;;;;;;0.00;0.00;;;;;;;1.26;42.53;100722.25;6285268;22;19918;-81
2022/03/21 01:31:13;;;;;;;0.00;0.00;;;;;;;1.31;42.04;100719.06;6281647;22;20080;-80
2022/03/21 01:33:40;;;;;;;0.00;0.00;;;;;;;1.34;41.92;100721.38;6294212;22;20436;-80
2022/03/21 01:36:15;;;;;;;0.00;0.00;;;;;;;1.37;42.10;100721.03;6293383;22;20009;-82
2022/03/21 01:38:47;;;;;;;0.00;0.00;;;;;;;1.41;41.96;100719.69;6285758;22;19991;-80
2022/03/21 05:20:17;;;;;;;1.10;1.00;;;;;;;5.94;36.11;100756.28;6307472;22;20016;-79
2022/03/21 10:57:39;;;;;;;0.00;0.00;;;;;;;8.24;24.32;100580.19;6334619;22;20030;-87
2022/03/21 11:09:15;;;;;;;0.10;0.10;;;;;;;8.30;24.10;100573.97;6314714;22;20030;-91
2022/03/21 11:29:11;;;;;;;0.20;0.20;;;;;;;8.85;25.16;100552.78;6321262;22;20027;-85
2022/03/21 11:32:51;;;;;;;0.00;0.00;;;;;;;8.95;24.94;100551.19;6330849;22;20031;-86
2022/03/21 11:46:34;;;;;;;0.20;0.20;;;;;;;9.35;23.84;100519.56;6100269;23;20021;-87
2022/03/21 11:49:46;;;;;;;0.00;0.00;;;;;;;9.35;24.24;100512.41;6081822;23;20456;-87
2022/03/21 11:53:02;;;;;;;0.10;0.10;;;;;;;9.38;23.36;100519.13;6064356;23;20013;-89
2022/03/21 11:56:06;;;;;;;5.68;1.85;;;;;;;9.27;23.34;100529.53;6208625;23;20009;-86
2022/03/21 11:59:17;;;;;;;0.08;0.08;;;;;;;9.01;23.57;100512.13;6209933;23;20009;-87
2022/03/21 12:01:43;;;;;;;0.00;0.00;;;;;;;9.03;23.89;100531.34;6183858;23;20387;-88
2022/03/21 12:05:20;;;;;;;0.10;0.10;;;;;;;9.10;23.85;100502.72;6185722;23;20012;-85
2022/03/21 12:08:48;;;;;;;0.00;0.00;;;;;;;9.21;23.59;100506.44;6200071;23;20017;-89
2022/03/21 12:11:52;;;;;;;;;;;;;;;9.19;24.56;100492.53;6209631;23;20005;-87
2022/03/21 12:18:40;;;;;;;0.03;0.03;;;;;;;9.23;24.23;100469.66;6096462;23;20014;-88
2022/03/21 12:21:54;;;;;;;0.00;0.00;;;;;;;9.15;23.90;100490.56;6121263;23;20010;-88
2022/03/21 12:24:36;;;;;;;0.17;0.17;;;;;;;9.18;23.82;100480.22;6156595;23;20479;-88
2022/03/21 12:28:19;;;;;;;0.00;0.00;;;;;;;9.25;24.53;100472.94;6126101;23;20253;-88
2022/03/21 12:31:33;;;;;;;0.52;0.52;;;;;;;9.45;24.63;100499.25;6117700;23;20010;-89
2022/03/21 12:34:41;;;;;;;0.17;0.17;;;;;;;9.35;24.02;100483.03;6117296;23;20022;-89
2022/03/21 12:38:14;;;;;;;0.15;0.15;;;;;;;9.42;23.64;100465.03;6144697;23;20002;-88
2022/03/21 12:41:32;;;;;;;0.25;0.25;;;;;;;9.50;23.65;100469.19;6135824;23;20069;-87
2022/03/21 12:45:05;;;;;;;0.70;0.40;;;;;;;9.62;24.61;100447.81;6130527;23;20009;-86
2022/03/21 12:48:16;;;;;;;0.38;0.30;;;;;;;9.83;24.23;100443.69;6096963;23;20068;-89
2022/03/21 12:51:38;;;;;;;0.32;0.32;;;;;;;9.92;23.75;100441.47;6174228;23;20143;-87
2022/03/21 12:54:58;;;;;;;0.10;0.10;;;;;;;9.96;23.51;100449.81;6139923;23;20060;-90
2022/03/21 12:57:25;;;;;;;0.38;0.38;;;;;;;10.04;23.47;100458.28;6220064;22;20079;-91
2022/03/21 13:00:38;;;;;;;0.10;0.10;;;;;;;10.03;23.42;100435.28;6250402;22;20008;-90
2022/03/21 13:10:33;;;;;;;0.47;0.47;;;;;;;9.89;22.91;100440.09;6252681;22;20104;-89
2022/03/21 13:13:05;;;;;;;0.00;0.00;;;;;;;9.90;23.60;100422.22;6284586;22;20003;-90
2022/03/21 13:15:54;;;;;;;0.88;0.85;;;;;;;10.02;23.85;100435.50;6225846;22;20030;-89
2022/03/21 13:18:31;;;;;;;0.10;0.10;;;;;;;10.03;24.03;100423.78;6247068;22;20099;-92
2022/03/21 13:24:20;;;;;;;1.10;1.10;;;;;;;10.04;23.34;100444.91;6152014;23;20016;-91
2022/03/21 13:30:18;;;;;;;0.10;0.10;;;;;;;9.93;23.28;100435.88;6259963;22;20685;-89
2022/03/21 13:33:06;;;;;;;0.65;0.65;;;;;;;9.86;23.74;100440.56;6203681;22;20023;-88
2022/03/21 13:35:32;;;;;;;0.35;0.35;;;;;;;9.75;23.79;100428.03;6252247;22;20437;-90
2022/03/21 13:38:42;;;;;;;0.35;0.35;;;;;;;9.76;23.39;100448.38;6265494;22;19996;-86
2022/03/21 13:41:38;;;;;;;0.10;0.10;;;;;;;9.66;23.42;100422.25;6239870;22;20000;-88
2022/03/21 13:45:03;;;;;;;0.10;0.10;;;;;;;9.75;24.06;100412.00;6285215;22;20012;-90
2022/03/21 13:48:03;;;;;;;0.00;0.00;;;;;;;9.86;23.53;100416.53;6252518;22;20017;-88
2022/03/21 13:54:24;;;;;;;2.50;1.45;;;;;;;9.86;24.18;100410.34;6280991;22;20015;-87
2022/03/21 13:57:32;;;;;;;0.08;0.08;;;;;;;9.93;23.78;100403.81;6245744;22;20023;-90
2022/03/21 14:00:31;;;;;;;0.13;0.13;;;;;;;10.04;24.72;100387.97;6144773;23;20009;-88
2022/03/21 14:03:40;;;;;;;0.20;0.20;;;;;;;10.05;24.57;100408.31;6128810;23;20033;-91
2022/03/21 14:06:54;;;;;;;0.00;0.00;;;;;;;10.09;23.84;100418.31;6157343;23;20025;-90
2022/03/21 14:10:15;;;;;;;0.13;0.13;;;;;;;10.05;23.55;100394.94;6228425;22;20017;-86
2022/03/21 14:13:31;;;;;;;0.40;0.40;;;;;;;10.02;23.76;100398.91;6237021;22;20070;-89
2022/03/21 14:17:11;;;;;;;0.57;0.57;;;;;;;9.91;23.58;100405.09;6155077;22;19997;-89
2022/03/21 14:24:17;;;;;;;0.00;0.00;;;;;;;9.96;25.17;100386.50;6225687;22;20119;-87
2022/03/21 14:37:58;;;;;;;0.15;0.15;;;;;;;10.07;23.64;100390.16;6164532;23;20012;-89
2022/03/21 14:41:05;;;;;;;0.20;0.20;;;;;;;10.07;24.49;100399.00;6178173;22;20008;-88
2022/03/21 14:44:13;;;;;;;0.70;0.70;;;;;;;9.98;23.78;100403.09;6150539;22;20006;-90
2022/03/21 14:47:12;;;;;;;0.57;0.35;;;;;;;9.94;24.57;100391.28;6190800;22;20458;-90
2022/03/21 14:52:55;;;;;;;0.10;0.10;;;;;;;10.02;24.73;100368.69;6258596;22;20052;-87
2022/03/21 14:59:24;;;;;;;0.88;0.85;;;;;;;10.03;24.20;100370.31;6167073;23;20024;-87
2022/03/21 15:03:00;;;;;;;0.50;0.50;;;;;;;9.93;23.92;100355.72;6159818;23;20020;-87
2022/03/21 15:05:53;;;;;;;0.40;0.35;;;;;;;9.84;24.02;100370.53;6281308;22;20003;-88
2022/03/21 15:16:40;;;;;;;1.90;1.75;;;;;;;9.89;24.09;100367.94;6037039;23;20070;-90
2022/03/21 15:19:45;;;;;;;3.15;1.08;;;;;;;9.89;24.39;100365.25;6037661;23;20010;-88
2022/03/21 15:22:55;;;;;;;;;;;;;;;9.84;24.89;100369.69;6014091;23;20031;-85
2022/03/21 15:29:41;;;;;;;0.15;0.15;;;;;;;9.82;24.54;100369.94;5994943;23;20036;-86
2022/03/21 15:47:43;;;;;;;0.55;0.55;;;;;;;9.67;24.83;100354.44;6098929;23;20041;-85
2022/03/21 15:51:08;;;;;;;1.77;1.70;;;;;;;9.60;25.01;100365.25;6056804;23;20021;-85
2022/03/21 16:01:13;;;;;;;0.35;0.35;;;;;;;9.49;24.89;100373.31;6218722;23;20539;-84
2022/03/21 16:21:07;;;;;;;0.03;0.03;;;;;;;9.26;25.53;100366.94;6318437;22;20010;-84
2022/03/21 16:24:19;;;;;;;2.83;0.95;;;;;;;9.10;25.83;100358.59;6317663;22;20007;-85
2022/03/21 16:27:18;;;;;;;0.00;0.00;;;;;;;9.09;25.56;100362.34;6288837;22;20006;-84
2022/03/21 16:29:44;;;;;;;0.00;0.00;;;;;;;9.11;25.80;100359.44;6310600;22;20007;-81
2022/03/21 16:33:02;;;;;;;0.00;0.00;;;;;;;9.10;26.25;100363.13;6217582;23;20576;-85
2022/03/21 16:35:47;;;;;;;0.00;0.00;;;;;;;9.03;26.37;100360.56;6225754;23;20028;-79
2022/03/21 16:39:06;;;;;;;1.55;0.75;;;;;;;8.95;26.46;100360.94;6193195;23;20398;-89
2022/03/21 16:41:33;;;;;;;0.35;0.35;;;;;;;8.89;26.76;100370.69;6188176;23;20500;-79
2022/03/21 16:44:51;;;;;;;0.00;0.00;;;;;;;8.80;27.15;100364.06;6187948;23;20062;-81
2022/03/21 16:54:26;;;;;;;0.00;0.00;;;;;;;8.49;28.09;100366.00;6149538;23;20072;-78
2022/03/21 16:57:00;;;;;;;0.00;0.00;;;;;;;8.40;28.09;100359.34;6158988;23;20009;-79
2022/03/21 16:59:26;;;;;;;0.52;0.52;;;;;;;8.34;28.15;100367.22;6203492;23;19996;-82
2022/03/21 17:02:49;;;;;;;0.00;0.00;;;;;;;8.29;28.13;100364.44;6192711;23;20004;-84
2022/03/21 17:05:15;;;;;;;0.00;0.00;;;;;;;8.22;28.25;100369.03;6269786;22;20011;-82
2022/03/21 17:07:47;;;;;;;0.50;0.50;;;;;;;8.16;28.82;100372.63;6267678;22;20007;-81
2022/03/21 17:10:21;;;;;;;0.65;0.65;;;;;;;8.09;28.89;100374.56;6279296;22;19995;-79
2022/03/21 17:12:47;;;;;;;0.20;0.20;;;;;;;8.02;29.40;100370.13;6278403;22;19999;-77
2022/03/21 17:15:13;;;;;;;0.73;0.73;;;;;;;7.96;29.23;100372.91;6309879;22;20002;-80
2022/03/21 17:24:30;;;;;;;0.20;0.20;;;;;;;7.78;29.79;100376.41;6289623;22;20025;-82
2022/03/21 17:26:56;;;;;;;0.00;0.00;;;;;;;7.72;29.96;100377.31;6279496;22;20002;-78
2022/03/21 17:29:21;;;;;;;0.90;0.90;;;;;;;7.71;29.93;100376.47;6305950;22;20428;-79
2022/03/21 17:38:41;;;;;;;0.00;0.00;;;;;;;7.63;30.37;100387.44;6316974;22;20010;-84
2022/03/21 17:51:31;;;;;;;0.00;0.00;;;;;;;7.59;30.58;100395.06;6317414;22;20026;-80
2022/03/21 17:53:58;;;;;;;0.00;0.00;;;;;;;7.57;30.88;100386.50;6279077;22;20119;-83
2022/03/21 17:56:26;;;;;;;2.42;1.55;;;;;;;7.57;30.93;100391.00;6278372;22;20087;-81
2022/03/21 18:02:17;;;;;;;0.00;0.00;;;;;;;7.44;30.82;100389.31;6224260;22;20178;-80
2022/03/21 18:04:42;;;;;;;0.17;0.17;;;;;;;7.34;31.23;100395.94;6185797;23;20000;-79
2022/03/21 18:07:08;;;;;;;1.95;0.95;;;;;;;7.26;31.33;100395.44;6245544;22;20567;-79
2022/03/21 18:09:33;;;;;;;0.00;0.00;;;;;;;7.17;31.22;100394.91;6277708;22;20360;-79
2022/03/21 18:12:00;;;;;;;0.95;0.95;;;;;;;7.09;31.31;100390.66;6276412;22;20003;-79
2022/03/21 18:14:25;;;;;;;0.00;0.00;;;;;;;7.04;31.83;100401.97;6277803;22;20011;-79
2022/03/21 18:16:51;;;;;;;0.98;0.65;;;;;;;6.94;31.80;100395.53;6262519;22;21038;-78
2022/03/21 18:21:51;;;;;;;0.00;0.00;;;;;;;6.92;31.93;100402.91;6310349;22;20399;-80
2022/03/21 18:24:17;;;;;;;0.30;0.30;;;;;;;6.88;31.92;100406.00;6280331;22;20014;-79
2022/03/21 18:26:43;;;;;;;0.15;0.15;;;;;;;6.88;31.80;100410.50;6258036;22;20088;-78
2022/03/21 18:29:09;;;;;;;0.57;0.57;;;;;;;6.84;31.97;100404.81;6278182;22;20004;-79
2022/03/21 18:36:52;;;;;;;1.38;1.30;;;;;;;6.77;32.44;100408.56;6308174;22;20019;-79
2022/03/21 18:39:40;;;;;;;0.38;0.38;;;;;;;6.78;33.09;100415.50;6286812;22;20014;-79
2022/03/21 18:42:45;;;;;;;7.40;2.38;;;;;;;6.42;33.28;100372.63;6245466;23;20508;-82
2022/03/21 18:48:51;;;;;;;1.45;1.38;;;;;;;6.69;33.32;100425.59;6320856;22;20049;-82
2022/03/21 18:51:20;;;;;;;0.57;0.57;;;;;;;6.63;33.42;100421.94;6319362;22;20426;-80
2022/03/21 18:58:18;;;;;;;1.60;0.95;;;;;;;6.57;33.69;100433.44;6140907;23;20562;-82
2022/03/21 19:00:53;;;;;;;1.13;1.02;;;;;;;6.55;33.22;100435.50;6173277;23;20054;-79
2022/03/21 19:03:20;;;;;;;0.22;0.22;;;;;;;6.52;34.52;100436.75;6247316;23;20004;-78
2022/03/21 19:05:46;;;;;;;0.00;0.00;;;;;;;6.53;34.01;100438.38;6217345;23;20000;-78
2022/03/21 19:08:12;;;;;;;0.10;0.10;;;;;;;6.52;33.65;100433.28;6241793;22;20012;-78
2022/03/21 19:10:38;;;;;;;0.32;0.30;;;;;;;6.43;33.97;100416.75;6260946;22;20965;-82
2022/03/21 19:14:08;;;;;;;0.25;0.25;;;;;;;6.53;33.75;100442.84;6259738;22;20030;-80
2022/03/21 19:16:38;;;;;;;1.48;0.77;;;;;;;6.53;34.00;100437.53;6217606;22;20034;-80
2022/03/21 19:48:05;;;;;;;0.20;0.20;;;;;;;6.17;31.84;100439.81;6310380;22;20023;-81
2022/03/21 19:59:30;;;;;;;1.85;1.00;;;;;;;6.17;31.74;100450.44;6302017;22;20030;-80
2022/03/21 20:02:00;;;;;;;0.38;0.38;;;;;;;6.18;32.04;100448.59;6289372;22;20015;-77
2022/03/21 20:04:27;;;;;;;1.65;0.75;;;;;;;6.17;32.01;100445.13;6287788;22;20078;-79
2022/03/21 20:07:42;;;;;;;0.20;0.20;;;;;;;6.17;32.59;100446.97;6315775;22;21944;-82
2022/03/21 20:10:27;;;;;;;0.00;0.00;;;;;;;6.15;33.67;100447.19;6321355;22;20454;-81
2022/03/21 20:12:59;;;;;;;1.40;1.40;;;;;;;6.15;33.89;100449.00;6286841;22;20421;-80
2022/03/21 20:18:10;;;;;;;0.00;0.00;;;;;;;6.04;33.90;100448.66;6311090;22;20051;-81
2022/03/21 20:20:56;;;;;;;0.13;0.13;;;;;;;6.05;34.24;100438.84;6295888;22;20018;-81
2022/03/21 20:23:25;;;;;;;0.00;0.00;;;;;;;6.00;34.01;100439.47;6282407;22;19999;-80
2022/03/21 20:25:50;;;;;;;0.10;0.10;;;;;;;6.03;33.86;100444.38;6279911;22;20432;-77
2022/03/21 20:28:16;;;;;;;3.30;0.80;;;;;;;6.03;34.06;100440.88;6276462;22;20082;-76
2022/03/21 20:30:48;;;;;;;0.00;0.00;;;;;;;6.04;33.63;100439.88;6306344;22;20432;-78
2022/03/21 20:33:16;;;;;;;0.10;0.10;;;;;;;6.05;33.90;100447.63;6250293;22;20094;-77
2022/03/21 20:35:41;;;;;;;0.35;0.35;;;;;;;6.06;33.36;100438.63;6276949;22;19999;-78
2022/03/21 20:38:06;;;;;;;0.10;0.10;;;;;;;6.05;33.81;100433.53;6280645;22;19975;-79
2022/03/21 20:40:33;;;;;;;0.05;0.05;;;;;;;6.05;33.16;100430.88;6278679;22;19995;-77
2022/03/21 20:42:58;;;;;;;0.35;0.35;;;;;;;6.07;33.30;100436.78;6278569;22;20003;-81
2022/03/21 20:45:26;;;;;;;0.35;0.35;;;;;;;6.05;32.67;100422.91;6307423;22;20459;-77
2022/03/21 20:47:55;;;;;;;0.00;0.00;;;;;;;6.08;32.60;100422.50;6277188;22;19995;-79
2022/03/21 20:50:22;;;;;;;0.10;0.10;;;;;;;6.13;32.79;100419.19;6277061;22;20406;-79
2022/03/21 20:52:50;;;;;;;0.00;0.00;;;;;;;6.15;32.87;100409.16;6276421;22;20003;-77
2022/03/21 20:55:18;;;;;;;0.60;0.60;;;;;;;6.19;32.54;100397.91;6276572;22;20014;-80
2022/03/21 20:57:45;;;;;;;0.00;0.00;;;;;;;6.23;32.48;100401.75;6281789;22;20039;-80
2022/03/21 21:08:33;;;;;;;0.00;0.00;;;;;;;6.33;32.55;100392.50;6257645;22;20023;-81
2022/03/21 21:11:03;;;;;;;0.15;0.15;;;;;;;6.36;33.55;100389.41;6284353;22;20015;-81
2022/03/21 21:13:31;;;;;;;0.00;0.00;;;;;;;6.36;34.78;100392.06;6311855;22;20092;-77
2022/03/21 21:15:57;;;;;;;0.00;0.00;;;;;;;6.37;34.31;100380.41;6304816;22;20005;-78
2022/03/21 21:18:24;;;;;;;0.10;0.10;;;;;;;6.37;34.62;100383.91;6277367;22;19999;-78
2022/03/21 21:20:50;;;;;;;0.08;0.08;;;;;;;6.37;33.98;100377.75;6277631;22;20003;-79
2022/03/21 21:23:19;;;;;;;0.05;0.05;;;;;;;6.37;33.68;100383.06;6278666;22;20000;-78
2022/03/21 21:25:49;;;;;;;0.00;0.00;;;;;;;6.36;33.73;100390.25;6280316;22;20003;-80
2022/03/21 21:29:11;;;;;;;0.00;0.00;;;;;;;6.38;33.62;100382.06;6285599;22;20004;-82
2022/03/21 21:31:40;;;;;;;0.00;0.00;;;;;;;6.39;32.71;100381.81;6271789;22;20007;-81
2022/03/21 21:34:05;;;;;;;;;;;;;;;6.40;33.42;100374.69;6278918;22;20061;-79
2022/03/21 21:36:31;;;;;;;0.00;0.00;;;;;;;6.38;33.08;100372.25;6278303;22;19989;-80
2022/03/21 21:42:18;;;;;;;0.00;0.00;;;;;;;6.37;33.02;100359.16;6318429;22;20010;-80
2022/03/21 21:44:44;;;;;;;0.00;0.00;;;;;;;6.21;33.33;100371.13;6280501;22;19999;-80
2022/03/21 21:47:10;;;;;;;0.00;0.00;;;;;;;6.33;33.39;100357.97;6280163;22;20022;-78
2022/03/21 21:49:37;;;;;;;0.00;0.00;;;;;;;6.33;33.53;100356.13;6280809;22;20078;-77
2022/03/21 21:52:03;;;;;;;0.65;0.65;;;;;;;6.36;33.77;100353.03;6278118;22;20007;-80
2022/03/21 22:01:19;;;;;;;0.00;0.00;;;;;;;6.34;33.79;100351.63;6153380;23;20511;-81
2022/03/21 22:03:44;;;;;;;1.10;1.10;;;;;;;6.33;33.56;100344.69;6277762;22;20001;-79
2022/03/21 22:06:10;;;;;;;0.00;0.00;;;;;;;6.33;33.95;100340.19;6277469;22;19999;-79
2022/03/21 22:08:35;;;;;;;0.10;0.10;;;;;;;6.36;33.81;100329.13;6277223;22;20004;-79
2022/03/21 22:11:01;;;;;;;0.00;0.00;;;;;;;6.37;33.63;100345.88;6278165;22;20014;-80
2022/03/21 22:14:30;;;;;;;0.00;0.00;;;;;;;6.32;33.97;100327.91;6277774;22;20433;-80
2022/03/21 22:20:28;;;;;;;0.00;0.00;;;;;;;6.35;33.90;100334.66;6314581;22;20025;-84
2022/03/21 22:22:53;;;;;;;0.00;0.00;;;;;;;6.35;33.89;100329.34;6278843;22;20421;-78
2022/03/21 22:25:19;;;;;;;0.00;0.00;;;;;;;6.38;34.02;100334.22;6278435;22;20006;-81
2022/03/21 22:27:48;;;;;;;0.08;0.08;;;;;;;6.38;33.84;100326.25;6278220;22;20343;-82
2022/03/21 22:30:14;;;;;;;0.00;0.00;;;;;;;6.39;34.04;100330.53;6278886;22;19995;-81
2022/03/21 22:32:40;;;;;;;0.00;0.00;;;;;;;6.42;34.06;100327.47;6280621;22;20074;-80
2022/03/21 22:35:06;;;;;;;0.00;0.00;;;;;;;6.42;34.50;100330.13;6278611;22;20144;-80
2022/03/21 22:37:31;;;;;;;0.00;0.00;;;;;;;6.41;34.01;100325.81;6278968;22;20003;-81
2022/03/21 22:48:15;;;;;;;0.00;0.00;;;;;;;6.48;34.25;100325.75;6304539;22;20011;-78
2022/03/21 22:50:40;;;;;;;0.00;0.00;;;;;;;6.49;34.03;100316.75;6304891;22;19999;-79
2022/03/21 22:53:05;;;;;;;0.00;0.00;;;;;;;6.49;33.62;100308.78;6304870;22;20003;-78
2022/03/21 22:55:31;;;;;;;0.25;0.25;;;;;;;6.47;33.57;100311.69;6304626;22;19999;-78
2022/03/21 22:57:56;;;;;;;0.00;0.00;;;;;;;6.48;34.03;100313.31;6305060;22;20000;-79
2022/03/21 23:00:57;;;;;;;0.22;0.22;;;;;;;6.48;33.37;100317.78;6304635;22;20010;-78
2022/03/21 23:03:22;;;;;;;0.20;0.20;;;;;;;6.50;33.53;100316.53;6277421;22;20428;-79
2022/03/21 23:05:48;;;;;;;0.00;0.00;;;;;;;6.51;33.75;100312.06;6277509;22;20090;-79
2022/03/21 23:08:14;;;;;;;0.00;0.00;;;;;;;6.53;33.63;100312.63;6277325;22;20000;-79
2022/03/21 23:10:41;;;;;;;0.08;0.08;;;;;;;6.54;33.33;100312.44;6304837;22;20007;-81
2022/03/21 23:13:08;;;;;;;0.25;0.25;;;;;;;6.56;33.46;100307.69;6277575;22;20363;-80
2022/03/21 23:15:34;;;;;;;0.00;0.00;;;;;;;6.56;33.42;100306.88;6277215;22;20040;-80
2022/03/21 23:18:01;;;;;;;0.10;0.10;;;;;;;6.55;33.40;100314.06;6277691;22;20082;-79
2022/03/21 23:20:26;;;;;;;0.00;0.00;;;;;;;6.56;33.52;100310.34;6277332;22;20455;-77
2022/03/21 23:22:52;;;;;;;0.03;0.03;;;;;;;6.57;33.86;100301.34;6305702;22;20031;-79
2022/03/21 23:42:20;;;;;;;0.00;0.00;;;;;;;6.42;34.31;100295.56;6268745;22;20010;-81
2022/03/21 23:42:20;;;;;;;0.55;0.55;;;;;;;6.34;34.86;100295.84;6235156;23;20458;-79
2022/03/21 23:44:45;;;;;;;0.45;0.45;;;;;;;6.31;35.15;100301.56;6217573;23;20012;-79
2022/03/21 23:47:11;;;;;;;0.10;0.10;;;;;;;6.27;35.65;100295.88;6217145;23;20030;-79
2022/03/21 23:49:36;;;;;;;0.00;0.00;;;;;;;6.26;35.78;100283.63;6218675;23;20458;-79
2022/03/21 23:52:01;;;;;;;0.10;0.10;;;;;;;6.20;35.77;100287.13;6218344;23;20065;-78
2022/03/21 23:57:49;;;;;;;0.10;0.10;;;;;;;6.16;36.41;100286.75;6264530;23;20015;-79
